Time;durP1;ratioP1;P1;durP2;ratioP2;P2;SDS_P1;SDS_P2;PMS_P1;PMS_P2;Temp;Humidity;BMP_temperature;BMP_pressure;BME280_temperature;BME280_humidity;BME280_pressure;Samples;Min_cycle;Max_cycle;Signal;HPM_P1;HPM_P2
2023/11/21 00:01:27;;;;;;;1.40;1.30;;;;;;;;;;5054771;28;20210;-84
2023/11/21 00:03:55;;;;;;;1.00;1.00;;;;;;;;;;5045922;28;20198;-84
2023/11/21 00:06:22;;;;;;;1.40;1.30;;;;;;;;;;5049841;28;20676;-84
2023/11/21 00:08:48;;;;;;;2.53;1.33;;;;;;;;;;5045260;28;20210;-85
2023/11/21 00:11:15;;;;;;;2.47;1.60;;;;;;;;;;5050127;28;20206;-83
2023/11/21 00:13:42;;;;;;;1.93;1.50;;;;;;;;;;5054743;28;20290;-84
2023/11/21 00:16:09;;;;;;;2.40;2.20;;;;;;;;;;5053742;28;20201;-84
2023/11/21 00:18:38;;;;;;;2.40;1.93;;;;;;;;;;5054034;28;20206;-83
2023/11/21 00:21:05;;;;;;;1.27;1.23;;;;;;;;;;5048184;28;20221;-81
2023/11/21 00:23:31;;;;;;;1.87;1.47;;;;;;;;;;5044778;28;20702;-81
2023/11/21 00:25:58;;;;;;;2.53;1.90;;;;;;;;;;5047299;28;20222;-82
2023/11/21 00:28:27;;;;;;;2.73;1.30;;;;;;;;;;5044253;28;20773;-81
2023/11/21 00:30:53;;;;;;;1.57;1.30;;;;;;;;;;5040597;28;20198;-81
2023/11/21 00:33:20;;;;;;;1.13;1.13;;;;;;;;;;5053910;28;20198;-81
2023/11/21 00:35:48;;;;;;;1.10;1.10;;;;;;;;;;5040708;28;20240;-81
2023/11/21 00:38:15;;;;;;;1.30;1.20;;;;;;;;;;5054138;28;20719;-81
2023/11/21 00:40:42;;;;;;;1.20;1.03;;;;;;;;;;5053623;28;20746;-82
2023/11/21 00:43:09;;;;;;;0.93;0.90;;;;;;;;;;5043352;28;20206;-81
2023/11/21 00:45:36;;;;;;;1.70;1.30;;;;;;;;;;5051035;28;20232;-81
2023/11/21 00:48:04;;;;;;;4.63;1.47;;;;;;;;;;5054359;28;20206;-81
2023/11/21 00:50:31;;;;;;;2.67;1.33;;;;;;;;;;5052913;28;20200;-81
2023/11/21 00:52:59;;;;;;;1.53;1.43;;;;;;;;;;5054032;28;20210;-81
2023/11/21 00:55:27;;;;;;;2.93;1.10;;;;;;;;;;5048461;28;20260;-80
2023/11/21 00:57:54;;;;;;;1.60;1.50;;;;;;;;;;5045793;28;20655;-81
2023/11/21 01:00:21;;;;;;;2.20;1.80;;;;;;;;;;5052606;28;20237;-81
2023/11/21 01:02:48;;;;;;;2.83;2.30;;;;;;;;;;5041900;28;20683;-81
2023/11/21 01:05:15;;;;;;;3.10;2.20;;;;;;;;;;5045369;28;20214;-81
2023/11/21 01:07:42;;;;;;;2.10;1.57;;;;;;;;;;5035965;28;20241;-81
2023/11/21 01:10:10;;;;;;;2.07;1.70;;;;;;;;;;5045944;28;20231;-82
2023/11/21 01:12:38;;;;;;;1.90;1.43;;;;;;;;;;5053941;28;20570;-81
2023/11/21 01:15:08;;;;;;;1.50;1.40;;;;;;;;;;5053310;28;20233;-81
2023/11/21 01:17:36;;;;;;;2.83;1.83;;;;;;;;;;5053230;28;20198;-82
2023/11/21 01:20:06;;;;;;;3.70;1.67;;;;;;;;;;5020319;28;20230;-80
2023/11/21 01:22:32;;;;;;;1.67;1.57;;;;;;;;;;5046747;28;20756;-81
2023/11/21 01:24:59;;;;;;;2.03;1.50;;;;;;;;;;5052699;28;20703;-81
2023/11/21 01:27:28;;;;;;;2.40;1.33;;;;;;;;;;5052929;28;20675;-81
2023/11/21 01:29:54;;;;;;;1.77;1.40;;;;;;;;;;5052756;28;20263;-81
2023/11/21 01:32:21;;;;;;;1.60;1.50;;;;;;;;;;5051034;28;20198;-81
2023/11/21 01:34:48;;;;;;;2.20;1.27;;;;;;;;;;5042155;28;20263;-82
2023/11/21 01:37:17;;;;;;;1.30;1.20;;;;;;;;;;5039077;28;20231;-81
2023/11/21 01:39:44;;;;;;;2.00;1.40;;;;;;;;;;5052450;28;20206;-81
2023/11/21 01:42:12;;;;;;;1.53;1.40;;;;;;;;;;5052560;28;20198;-82
2023/11/21 01:44:44;;;;;;;1.47;1.30;;;;;;;;;;5043445;28;20203;-81
2023/11/21 01:47:11;;;;;;;1.20;1.10;;;;;;;;;;5032637;28;20205;-82
2023/11/21 01:49:38;;;;;;;1.73;1.40;;;;;;;;;;5043454;28;20217;-81
2023/11/21 01:52:07;;;;;;;1.87;1.40;;;;;;;;;;5051767;28;20202;-81
2023/11/21 01:54:34;;;;;;;1.83;1.77;;;;;;;;;;5052295;28;20212;-81
2023/11/21 01:57:02;;;;;;;1.13;1.10;;;;;;;;;;5048335;28;20211;-81
2023/11/21 01:59:36;;;;;;;2.10;1.10;;;;;;;;;;5043921;28;20209;-81
2023/11/21 02:02:06;;;;;;;2.60;1.47;;;;;;;;;;5052015;28;20202;-81
2023/11/21 02:04:33;;;;;;;1.20;0.97;;;;;;;;;;5052257;28;20233;-81
2023/11/21 02:07:00;;;;;;;3.50;1.20;;;;;;;;;;5032456;28;20677;-82
2023/11/21 02:09:27;;;;;;;1.40;1.23;;;;;;;;;;5045467;28;20235;-82
2023/11/21 02:11:55;;;;;;;2.33;1.37;;;;;;;;;;5038987;28;20217;-82
2023/11/21 02:14:22;;;;;;;2.43;1.17;;;;;;;;;;5051578;28;20240;-83
2023/11/21 02:16:50;;;;;;;1.30;1.20;;;;;;;;;;5051962;28;20656;-82
2023/11/21 02:19:22;;;;;;;1.10;1.10;;;;;;;;;;5051734;28;20753;-82
2023/11/21 02:21:51;;;;;;;1.43;1.20;;;;;;;;;;5052594;28;20316;-81
2023/11/21 02:24:21;;;;;;;1.10;1.07;;;;;;;;;;5051524;28;20746;-82
2023/11/21 02:26:48;;;;;;;1.27;1.23;;;;;;;;;;5051921;28;20742;-82
2023/11/21 02:29:17;;;;;;;1.33;1.20;;;;;;;;;;5052165;28;20202;-82
2023/11/21 02:31:47;;;;;;;1.97;1.50;;;;;;;;;;5042311;28;20685;-82
2023/11/21 02:34:15;;;;;;;3.13;1.63;;;;;;;;;;5049202;28;20221;-82
2023/11/21 02:36:42;;;;;;;1.93;1.70;;;;;;;;;;5052038;28;20232;-80
2023/11/21 02:39:09;;;;;;;1.13;1.10;;;;;;;;;;5038043;28;20664;-82
2023/11/21 02:41:38;;;;;;;2.23;1.20;;;;;;;;;;5052152;28;20308;-82
2023/11/21 02:44:08;;;;;;;1.30;1.20;;;;;;;;;;5038542;28;20229;-82
2023/11/21 02:46:35;;;;;;;2.40;1.30;;;;;;;;;;5051732;28;20232;-82
2023/11/21 02:49:03;;;;;;;1.20;1.10;;;;;;;;;;5038638;28;20613;-82
2023/11/21 02:51:30;;;;;;;1.87;1.43;;;;;;;;;;5026592;28;20210;-81
2023/11/21 02:53:58;;;;;;;1.57;1.30;;;;;;;;;;5044597;28;20221;-81
2023/11/21 02:56:26;;;;;;;1.90;1.60;;;;;;;;;;5045375;28;20202;-83
2023/11/21 02:58:56;;;;;;;2.07;1.70;;;;;;;;;;5038338;28;20233;-82
2023/11/21 03:01:24;;;;;;;4.40;1.60;;;;;;;;;;5038280;28;20325;-82
2023/11/21 03:03:51;;;;;;;1.40;1.30;;;;;;;;;;5051693;28;20206;-82
2023/11/21 03:06:18;;;;;;;1.50;1.33;;;;;;;;;;5051007;28;20230;-82
2023/11/21 03:08:44;;;;;;;1.63;1.30;;;;;;;;;;5051696;28;20202;-82
2023/11/21 03:11:12;;;;;;;1.40;1.30;;;;;;;;;;5037749;28;20211;-81
2023/11/21 03:13:40;;;;;;;1.03;1.00;;;;;;;;;;5050882;28;20193;-83
2023/11/21 03:16:10;;;;;;;1.37;1.27;;;;;;;;;;5034110;28;20228;-82
2023/11/21 03:18:37;;;;;;;2.47;1.30;;;;;;;;;;5041459;28;20206;-81
2023/11/21 03:21:06;;;;;;;1.37;1.27;;;;;;;;;;5047883;28;20268;-82
2023/11/21 03:23:34;;;;;;;1.83;1.40;;;;;;;;;;5051192;28;20271;-82
2023/11/21 03:26:01;;;;;;;1.97;1.30;;;;;;;;;;5033886;28;20210;-82
2023/11/21 03:28:28;;;;;;;1.50;1.40;;;;;;;;;;5030452;28;20756;-82
2023/11/21 03:30:56;;;;;;;2.20;1.37;;;;;;;;;;5048944;28;20244;-82
2023/11/21 03:33:24;;;;;;;2.20;1.80;;;;;;;;;;5039395;28;20221;-82
2023/11/21 03:35:52;;;;;;;1.13;1.13;;;;;;;;;;5048462;28;20230;-83
2023/11/21 03:38:20;;;;;;;1.40;1.30;;;;;;;;;;5050859;28;20214;-82
2023/11/21 03:40:46;;;;;;;1.40;1.30;;;;;;;;;;5033152;28;20234;-82
2023/11/21 03:43:13;;;;;;;1.27;1.20;;;;;;;;;;5042803;28;20205;-82
2023/11/21 03:45:40;;;;;;;1.40;1.30;;;;;;;;;;5050590;28;20213;-82
2023/11/21 03:48:07;;;;;;;2.33;1.60;;;;;;;;;;5039562;28;20296;-80
2023/11/21 03:50:35;;;;;;;2.47;1.40;;;;;;;;;;5043067;28;20210;-81
2023/11/21 03:53:02;;;;;;;1.93;1.40;;;;;;;;;;5042555;28;20205;-81
2023/11/21 03:55:31;;;;;;;2.47;1.43;;;;;;;;;;5050243;28;20695;-81
2023/11/21 03:57:57;;;;;;;2.20;1.63;;;;;;;;;;5050611;28;20206;-80
2023/11/21 04:00:24;;;;;;;2.90;1.93;;;;;;;;;;5044283;28;20289;-80
2023/11/21 04:02:51;;;;;;;2.97;1.57;;;;;;;;;;5043654;28;20201;-81
2023/11/21 04:05:18;;;;;;;2.63;1.33;;;;;;;;;;5049982;28;20197;-81
2023/11/21 04:07:46;;;;;;;1.90;1.80;;;;;;;;;;5050606;28;20213;-81
2023/11/21 04:10:13;;;;;;;1.53;1.43;;;;;;;;;;5049737;28;20213;-80
2023/11/21 04:12:40;;;;;;;2.60;1.23;;;;;;;;;;5049926;28;20213;-81
2023/11/21 04:15:09;;;;;;;4.87;4.40;;;;;;;;;;5049461;28;20580;-81
2023/11/21 04:17:36;;;;;;;5.27;4.47;;;;;;;;;;5049875;28;20197;-81
2023/11/21 04:20:08;;;;;;;5.00;3.10;;;;;;;;;;5050025;28;20198;-81
2023/11/21 04:22:34;;;;;;;3.57;2.10;;;;;;;;;;5039281;28;20257;-81
2023/11/21 04:25:03;;;;;;;2.07;1.70;;;;;;;;;;5034168;28;20203;-81
2023/11/21 04:27:30;;;;;;;8.33;4.50;;;;;;;;;;5034516;28;20206;-80
2023/11/21 04:29:56;;;;;;;8.90;6.60;;;;;;;;;;5034588;28;20207;-81
2023/11/21 04:32:23;;;;;;;8.57;4.83;;;;;;;;;;5034942;28;20203;-80
2023/11/21 04:34:50;;;;;;;2.97;2.40;;;;;;;;;;5039147;28;20202;-80
2023/11/21 04:37:17;;;;;;;1.60;1.50;;;;;;;;;;5049858;28;20230;-80
2023/11/21 04:39:44;;;;;;;2.50;1.73;;;;;;;;;;5052660;28;20206;-82
2023/11/21 04:42:12;;;;;;;1.83;1.73;;;;;;;;;;5051128;28;20237;-83
2023/11/21 04:44:42;;;;;;;1.80;1.70;;;;;;;;;;5043531;28;20664;-82
2023/11/21 04:47:08;;;;;;;3.73;2.67;;;;;;;;;;5037716;28;20207;-81
2023/11/21 04:49:35;;;;;;;3.47;3.17;;;;;;;;;;5053400;28;20259;-81
2023/11/21 04:52:03;;;;;;;6.03;3.73;;;;;;;;;;5053723;28;20284;-81
2023/11/21 04:54:31;;;;;;;10.07;5.90;;;;;;;;;;5053511;28;20676;-81
2023/11/21 04:56:58;;;;;;;5.30;4.80;;;;;;;;;;5039696;28;20220;-80
2023/11/21 04:59:28;;;;;;;2.83;2.40;;;;;;;;;;5054218;28;20288;-80
2023/11/21 05:01:55;;;;;;;2.33;2.13;;;;;;;;;;5053787;28;20316;-80
2023/11/21 05:04:22;;;;;;;5.97;2.97;;;;;;;;;;5052377;28;20202;-79
2023/11/21 05:06:49;;;;;;;4.63;2.73;;;;;;;;;;5052396;28;20194;-80
2023/11/21 05:09:16;;;;;;;2.77;2.40;;;;;;;;;;5042393;28;20207;-80
2023/11/21 05:11:43;;;;;;;2.17;2.00;;;;;;;;;;5038911;28;20673;-78
2023/11/21 05:14:10;;;;;;;2.47;1.90;;;;;;;;;;5049643;28;20190;-79
2023/11/21 05:16:38;;;;;;;5.53;4.37;;;;;;;;;;5053231;28;20672;-78
2023/11/21 05:19:06;;;;;;;8.17;5.70;;;;;;;;;;5048880;28;20261;-76
2023/11/21 05:21:33;;;;;;;11.17;5.77;;;;;;;;;;5047186;28;20225;-79
2023/11/21 05:24:00;;;;;;;5.27;3.83;;;;;;;;;;5053146;28;20212;-79
2023/11/21 05:26:27;;;;;;;6.00;3.93;;;;;;;;;;5052460;28;20206;-79
2023/11/21 05:28:54;;;;;;;37.80;22.00;;;;;;;;;;5052737;28;20233;-79
2023/11/21 05:31:21;;;;;;;19.13;13.00;;;;;;;;;;5052545;28;20703;-79
2023/11/21 05:33:49;;;;;;;6.07;4.30;;;;;;;;;;5052493;28;20715;-79
2023/11/21 05:36:16;;;;;;;8.60;5.70;;;;;;;;;;5052435;28;20245;-77
2023/11/21 05:38:42;;;;;;;5.20;3.87;;;;;;;;;;5052750;28;20212;-77
2023/11/21 05:41:10;;;;;;;8.50;5.63;;;;;;;;;;5052675;28;20228;-78
2023/11/21 05:43:38;;;;;;;9.20;5.20;;;;;;;;;;5052040;28;20201;-77
2023/11/21 05:46:06;;;;;;;4.47;2.47;;;;;;;;;;5052827;28;20237;-77
2023/11/21 05:48:33;;;;;;;3.10;2.50;;;;;;;;;;5052423;28;20587;-77
2023/11/21 05:51:01;;;;;;;3.03;2.70;;;;;;;;;;5052199;28;20588;-77
2023/11/21 05:53:28;;;;;;;3.13;2.77;;;;;;;;;;5052214;28;20213;-77
2023/11/21 05:55:55;;;;;;;2.00;1.90;;;;;;;;;;5052236;28;20202;-77
2023/11/21 05:58:21;;;;;;;2.10;1.90;;;;;;;;;;5052077;28;20206;-80
2023/11/21 06:00:47;;;;;;;2.63;2.43;;;;;;;;;;5052419;28;20215;-79
2023/11/21 06:03:14;;;;;;;8.13;5.83;;;;;;;;;;5048901;28;20313;-80
2023/11/21 06:05:41;;;;;;;14.97;12.67;;;;;;;;;;5042655;28;20216;-80
2023/11/21 06:08:10;;;;;;;9.57;8.57;;;;;;;;;;5052087;28;20198;-79
2023/11/21 06:10:37;;;;;;;4.87;4.13;;;;;;;;;;5051686;28;20229;-80
2023/11/21 06:13:07;;;;;;;4.63;3.13;;;;;;;;;;5051419;28;20201;-80
2023/11/21 06:15:34;;;;;;;3.57;2.43;;;;;;;;;;5051801;28;20598;-79
2023/11/21 06:18:01;;;;;;;4.27;1.90;;;;;;;;;;5051939;28;20201;-77
2023/11/21 06:20:28;;;;;;;19.17;16.70;;;;;;;;;;5051908;28;20205;-77
2023/11/21 06:22:55;;;;;;;14.80;11.47;;;;;;;;;;5051461;28;20226;-77
2023/11/21 06:25:23;;;;;;;10.43;7.57;;;;;;;;;;5051888;28;20202;-77
2023/11/21 06:27:51;;;;;;;9.27;8.07;;;;;;;;;;5051744;28;20209;-77
2023/11/21 06:30:19;;;;;;;9.10;8.20;;;;;;;;;;5051726;28;20262;-77
2023/11/21 06:32:46;;;;;;;8.30;7.50;;;;;;;;;;5051296;28;20208;-77
2023/11/21 06:35:13;;;;;;;11.73;7.30;;;;;;;;;;5051777;28;20263;-78
2023/11/21 06:37:40;;;;;;;7.70;6.90;;;;;;;;;;5051485;28;20198;-77
2023/11/21 06:40:09;;;;;;;15.30;8.90;;;;;;;;;;5052086;28;20221;-77
2023/11/21 06:42:38;;;;;;;10.90;8.77;;;;;;;;;;5051583;28;20226;-77
2023/11/21 06:45:06;;;;;;;10.13;7.40;;;;;;;;;;5050664;28;20271;-79
2023/11/21 06:47:33;;;;;;;12.43;6.00;;;;;;;;;;5051797;28;20206;-77
2023/11/21 06:50:00;;;;;;;21.80;14.17;;;;;;;;;;5051114;28;20205;-77
2023/11/21 06:52:27;;;;;;;27.73;19.87;;;;;;;;;;5050913;28;20229;-77
2023/11/21 06:54:54;;;;;;;22.67;14.77;;;;;;;;;;5050790;28;20202;-77
2023/11/21 06:57:21;;;;;;;52.33;31.93;;;;;;;;;;5051703;28;20261;-77
2023/11/21 06:59:50;;;;;;;65.00;40.20;;;;;;;;;;5050641;28;20202;-77
2023/11/21 07:02:18;;;;;;;28.77;17.97;;;;;;;;;;5050823;28;20287;-77
2023/11/21 07:04:45;;;;;;;30.07;20.10;;;;;;;;;;5050665;28;20683;-77
2023/11/21 07:07:11;;;;;;;44.13;25.83;;;;;;;;;;5051030;28;20206;-77
2023/11/21 07:09:38;;;;;;;31.73;20.37;;;;;;;;;;5051112;28;20592;-76
2023/11/21 07:12:08;;;;;;;19.10;10.20;;;;;;;;;;5050994;28;20206;-76
2023/11/21 07:14:35;;;;;;;11.37;6.77;;;;;;;;;;5051057;28;20197;-77
2023/11/21 07:17:04;;;;;;;21.23;11.67;;;;;;;;;;5050840;28;20202;-76
2023/11/21 07:19:30;;;;;;;22.20;10.73;;;;;;;;;;5050513;28;20616;-77
2023/11/21 07:21:57;;;;;;;13.00;8.70;;;;;;;;;;5050659;28;20233;-76
2023/11/21 07:24:24;;;;;;;15.47;9.37;;;;;;;;;;5050378;28;20672;-76
2023/11/21 07:26:54;;;;;;;12.53;8.20;;;;;;;;;;5050966;28;20213;-77
2023/11/21 07:29:21;;;;;;;14.77;7.37;;;;;;;;;;5050436;28;20202;-77
2023/11/21 07:31:48;;;;;;;9.57;5.77;;;;;;;;;;5050642;28;20297;-77
2023/11/21 07:34:16;;;;;;;11.57;5.70;;;;;;;;;;5049997;28;20194;-77
2023/11/21 07:36:43;;;;;;;12.60;5.00;;;;;;;;;;5050969;28;20232;-76
2023/11/21 07:39:10;;;;;;;13.03;6.67;;;;;;;;;;5050302;28;20204;-77
2023/11/21 07:41:44;;;;;;;15.90;8.47;;;;;;;;;;5050745;28;20206;-77
2023/11/21 07:44:11;;;;;;;12.37;7.43;;;;;;;;;;5049958;28;20201;-76
2023/11/21 07:46:38;;;;;;;13.57;7.63;;;;;;;;;;5050749;28;20202;-76
2023/11/21 07:49:05;;;;;;;11.13;7.13;;;;;;;;;;5050420;28;20217;-76
2023/11/21 07:51:33;;;;;;;9.53;6.33;;;;;;;;;;5050844;28;20198;-76
2023/11/21 07:54:00;;;;;;;10.60;8.10;;;;;;;;;;5050418;28;20202;-76
2023/11/21 07:56:27;;;;;;;10.27;4.27;;;;;;;;;;5050202;28;20658;-77
2023/11/21 07:58:54;;;;;;;6.73;4.23;;;;;;;;;;5024396;28;20636;-76
2023/11/21 08:01:21;;;;;;;8.53;5.63;;;;;;;;;;5050417;28;20212;-77
2023/11/21 08:03:51;;;;;;;2.47;1.77;;;;;;;;;;5050669;28;20229;-77
2023/11/21 08:06:18;;;;;;;3.27;2.20;;;;;;;;;;5049885;28;20209;-76
2023/11/21 08:08:47;;;;;;;6.20;4.77;;;;;;;;;;5050346;28;20213;-76
2023/11/21 08:11:14;;;;;;;8.83;6.77;;;;;;;;;;5050239;28;20577;-76
2023/11/21 08:13:40;;;;;;;2.87;2.60;;;;;;;;;;5050106;28;20197;-76
2023/11/21 08:16:08;;;;;;;6.43;5.20;;;;;;;;;;5054198;28;20213;-76
2023/11/21 08:18:35;;;;;;;4.97;4.33;;;;;;;;;;5053810;28;20680;-76
2023/11/21 08:21:03;;;;;;;2.20;2.07;;;;;;;;;;5053813;28;20205;-76
2023/11/21 08:23:29;;;;;;;1.70;1.60;;;;;;;;;;5054141;28;20233;-76
2023/11/21 08:25:58;;;;;;;2.23;1.27;;;;;;;;;;5054021;28;20215;-77
2023/11/21 08:28:25;;;;;;;1.70;1.60;;;;;;;;;;5053787;28;20210;-77
2023/11/21 08:30:52;;;;;;;1.80;1.70;;;;;;;;;;5053532;28;20289;-77
2023/11/21 08:33:19;;;;;;;1.87;1.77;;;;;;;;;;5054061;28;20636;-76
2023/11/21 08:35:46;;;;;;;1.87;1.37;;;;;;;;;;5053870;28;20230;-76
2023/11/21 08:38:13;;;;;;;1.50;1.40;;;;;;;;;;5053462;28;20275;-76
2023/11/21 08:40:40;;;;;;;1.83;1.60;;;;;;;;;;5053573;28;20209;-76
2023/11/21 08:43:08;;;;;;;2.87;2.20;;;;;;;;;;5053866;28;20453;-76
2023/11/21 08:45:35;;;;;;;3.60;1.53;;;;;;;;;;5053417;28;20213;-76
2023/11/21 08:48:11;;;;;;;1.83;1.73;;;;;;;;;;5053559;28;20212;-77
2023/11/21 08:50:38;;;;;;;2.47;1.97;;;;;;;;;;5053267;28;20208;-77
2023/11/21 08:53:05;;;;;;;6.10;4.10;;;;;;;;;;5053852;28;20209;-77
2023/11/21 08:55:37;;;;;;;1.60;1.50;;;;;;;;;;5053459;28;20206;-76
2023/11/21 08:58:04;;;;;;;2.47;1.90;;;;;;;;;;5053152;28;20683;-76
2023/11/21 09:00:33;;;;;;;8.43;6.03;;;;;;;;;;5052825;28;20320;-76
2023/11/21 09:03:00;;;;;;;2.57;1.80;;;;;;;;;;5053092;28;20226;-77
2023/11/21 09:05:27;;;;;;;2.93;1.70;;;;;;;;;;5027134;28;20194;-76
2023/11/21 09:07:54;;;;;;;2.60;2.10;;;;;;;;;;5052530;28;20212;-77
2023/11/21 09:10:20;;;;;;;11.67;6.43;;;;;;;;;;5053306;28;20202;-76
2023/11/21 09:12:47;;;;;;;1.80;1.70;;;;;;;;;;5053014;28;20231;-79
2023/11/21 09:15:14;;;;;;;3.30;2.53;;;;;;;;;;5045790;28;20716;-76
2023/11/21 09:17:44;;;;;;;2.40;2.20;;;;;;;;;;5047264;28;20240;-76
2023/11/21 09:20:12;;;;;;;3.27;2.03;;;;;;;;;;5053223;28;20206;-76
2023/11/21 09:22:39;;;;;;;2.20;1.60;;;;;;;;;;5052844;28;20233;-77
2023/11/21 09:25:09;;;;;;;2.90;2.40;;;;;;;;;;5052349;28;20211;-76
2023/11/21 09:27:36;;;;;;;3.33;2.33;;;;;;;;;;5052812;28;20216;-76
2023/11/21 09:30:05;;;;;;;3.53;2.60;;;;;;;;;;5053296;28;20260;-76
2023/11/21 09:32:32;;;;;;;2.23;1.77;;;;;;;;;;5052605;28;20668;-76
2023/11/21 09:35:02;;;;;;;1.67;1.57;;;;;;;;;;5052321;28;20219;-77
2023/11/21 09:37:28;;;;;;;2.53;1.90;;;;;;;;;;5052701;28;20717;-77
2023/11/21 09:39:55;;;;;;;2.90;2.27;;;;;;;;;;5052901;28;20208;-77
2023/11/21 09:42:26;;;;;;;3.77;2.37;;;;;;;;;;5052661;28;20285;-78
2023/11/21 09:44:58;;;;;;;4.67;3.37;;;;;;;;;;5052453;28;20204;-78
2023/11/21 09:47:25;;;;;;;7.00;4.37;;;;;;;;;;5052035;28;20194;-77
2023/11/21 09:49:54;;;;;;;3.40;2.20;;;;;;;;;;5052814;28;20596;-78
2023/11/21 09:52:27;;;;;;;1.90;1.80;;;;;;;;;;5051881;28;20215;-78
2023/11/21 09:54:54;;;;;;;2.33;2.17;;;;;;;;;;5052272;28;20213;-77
2023/11/21 09:57:22;;;;;;;2.27;1.90;;;;;;;;;;5052600;28;20201;-78
2023/11/21 09:59:51;;;;;;;3.10;1.67;;;;;;;;;;5051628;28;20700;-77
2023/11/21 10:02:20;;;;;;;2.47;1.90;;;;;;;;;;5052271;28;20206;-77
2023/11/21 10:04:47;;;;;;;3.43;1.80;;;;;;;;;;5051867;28;20202;-77
2023/11/21 10:07:17;;;;;;;5.57;1.53;;;;;;;;;;5052131;28;20202;-78
2023/11/21 10:09:45;;;;;;;1.67;1.57;;;;;;;;;;5052178;28;20212;-78
2023/11/21 10:12:13;;;;;;;1.90;1.67;;;;;;;;;;5052305;28;20204;-77
2023/11/21 10:14:43;;;;;;;2.20;2.00;;;;;;;;;;5052173;28;20668;-77
2023/11/21 10:17:12;;;;;;;2.00;1.90;;;;;;;;;;5051872;28;20217;-78
2023/11/21 10:19:40;;;;;;;3.50;2.03;;;;;;;;;;5051469;28;20328;-77
2023/11/21 10:22:08;;;;;;;2.43;2.23;;;;;;;;;;5052286;28;20213;-77
2023/11/21 10:24:36;;;;;;;2.93;1.80;;;;;;;;;;5051479;28;20228;-77
2023/11/21 10:27:05;;;;;;;3.10;1.80;;;;;;;;;;5052267;28;20198;-78
2023/11/21 10:29:35;;;;;;;3.37;2.97;;;;;;;;;;5051172;28;20209;-78
2023/11/21 10:32:03;;;;;;;1.97;1.87;;;;;;;;;;5051730;28;20641;-78
2023/11/21 10:34:30;;;;;;;1.90;1.80;;;;;;;;;;5050834;28;20201;-78
2023/11/21 10:36:57;;;;;;;2.70;1.70;;;;;;;;;;5051644;28;20233;-78
2023/11/21 10:39:28;;;;;;;2.47;1.60;;;;;;;;;;5024982;28;20198;-78
2023/11/21 10:41:56;;;;;;;2.30;2.10;;;;;;;;;;5051425;28;20700;-78
2023/11/21 10:44:25;;;;;;;2.63;1.70;;;;;;;;;;5051132;28;20228;-79
2023/11/21 10:46:55;;;;;;;3.70;1.80;;;;;;;;;;5051153;28;20288;-78
2023/11/21 10:49:24;;;;;;;2.30;2.07;;;;;;;;;;5051327;28;20676;-80
2023/11/21 10:51:52;;;;;;;2.33;2.13;;;;;;;;;;5051152;28;20206;-78
2023/11/21 10:54:21;;;;;;;3.53;1.90;;;;;;;;;;5051116;28;20198;-78
2023/11/21 10:56:51;;;;;;;2.17;1.97;;;;;;;;;;5051510;28;20209;-78
2023/11/21 10:59:18;;;;;;;4.10;2.13;;;;;;;;;;5051303;28;20666;-78
2023/11/21 11:01:49;;;;;;;2.73;2.20;;;;;;;;;;5050286;28;20597;-78
2023/11/21 11:04:17;;;;;;;2.57;2.37;;;;;;;;;;5051055;28;20316;-78
2023/11/21 11:06:44;;;;;;;2.10;1.90;;;;;;;;;;5051083;28;20210;-78
2023/11/21 11:09:14;;;;;;;2.30;2.10;;;;;;;;;;5050972;28;20594;-78
2023/11/21 11:11:43;;;;;;;2.80;2.57;;;;;;;;;;5051072;28;20293;-78
2023/11/21 11:14:12;;;;;;;4.03;2.80;;;;;;;;;;5050755;28;20198;-78
2023/11/21 11:16:40;;;;;;;5.50;3.40;;;;;;;;;;5051301;28;20252;-78
2023/11/21 11:19:09;;;;;;;3.40;3.10;;;;;;;;;;5050623;28;20209;-78
2023/11/21 11:21:48;;;;;;;6.97;3.50;;;;;;;;;;5051019;28;20607;-78
2023/11/21 11:24:34;;;;;;;7.97;5.40;;;;;;;;;;5050646;28;20230;-77
2023/11/21 11:27:08;;;;;;;10.47;6.90;;;;;;;;;;5050828;28;20586;-78
2023/11/21 11:29:43;;;;;;;26.17;19.53;;;;;;;;;;5050881;28;20251;-77
2023/11/21 11:32:25;;;;;;;7.73;7.13;;;;;;;;;;5050712;28;20215;-78
2023/11/21 11:35:00;;;;;;;4.17;3.40;;;;;;;;;;5051121;28;20201;-77
2023/11/21 11:37:27;;;;;;;4.40;2.70;;;;;;;;;;5050960;28;20221;-78
2023/11/21 11:39:54;;;;;;;3.50;2.83;;;;;;;;;;5050192;28;20201;-77
2023/11/21 11:42:23;;;;;;;2.50;2.30;;;;;;;;;;5050698;28;20259;-77
2023/11/21 11:44:55;;;;;;;7.13;3.43;;;;;;;;;;5050334;28;20279;-77
2023/11/21 11:47:24;;;;;;;3.70;3.40;;;;;;;;;;5050813;28;20231;-77
2023/11/21 11:50:13;;;;;;;14.67;12.03;;;;;;;;;;5049892;28;20260;-77
2023/11/21 11:52:44;;;;;;;15.23;13.17;;;;;;;;;;5029371;28;20680;-77
2023/11/21 11:55:11;;;;;;;4.77;4.37;;;;;;;;;;5050439;28;20677;-77
2023/11/21 11:57:42;;;;;;;12.00;10.53;;;;;;;;;;5050673;28;20202;-77
2023/11/21 12:00:17;;;;;;;6.83;3.93;;;;;;;;;;5050349;28;20205;-78
2023/11/21 12:02:46;;;;;;;3.60;2.87;;;;;;;;;;5050899;28;20256;-77
2023/11/21 12:05:14;;;;;;;4.17;3.77;;;;;;;;;;5050404;28;20198;-77
2023/11/21 12:07:45;;;;;;;6.17;3.53;;;;;;;;;;5049719;28;20290;-80
2023/11/21 12:10:14;;;;;;;7.77;4.03;;;;;;;;;;5025487;28;20202;-77
2023/11/21 12:12:44;;;;;;;6.23;4.63;;;;;;;;;;5050609;28;20206;-78
2023/11/21 12:15:12;;;;;;;6.47;5.13;;;;;;;;;;5049974;28;20244;-77
2023/11/21 12:17:40;;;;;;;7.30;4.60;;;;;;;;;;5049849;28;20297;-77
2023/11/21 12:20:14;;;;;;;7.23;6.50;;;;;;;;;;5050137;28;20219;-77
2023/11/21 12:22:43;;;;;;;6.00;4.87;;;;;;;;;;5050365;28;20397;-77
2023/11/21 12:25:10;;;;;;;6.30;5.40;;;;;;;;;;5049699;28;20222;-77
2023/11/21 12:27:36;;;;;;;4.60;4.00;;;;;;;;;;5050369;28;20197;-77
2023/11/21 12:30:13;;;;;;;6.07;4.70;;;;;;;;;;5049913;28;20202;-77
2023/11/21 12:32:43;;;;;;;5.43;5.00;;;;;;;;;;5049477;28;20280;-77
2023/11/21 12:35:11;;;;;;;4.63;4.23;;;;;;;;;;5049605;28;20584;-77
2023/11/21 12:37:39;;;;;;;7.47;5.33;;;;;;;;;;5049960;28;20285;-77
2023/11/21 12:40:11;;;;;;;5.83;5.30;;;;;;;;;;5050007;28;20205;-78
2023/11/21 12:42:40;;;;;;;5.87;5.37;;;;;;;;;;5049792;28;20290;-77
2023/11/21 12:45:19;;;;;;;7.17;5.50;;;;;;;;;;5049659;28;20608;-78
2023/11/21 12:47:47;;;;;;;5.23;4.47;;;;;;;;;;5049692;28;20774;-77
2023/11/21 12:50:15;;;;;;;6.03;3.60;;;;;;;;;;5049837;28;20213;-77
2023/11/21 12:52:46;;;;;;;4.83;4.30;;;;;;;;;;5049829;28;20757;-77
2023/11/21 12:55:18;;;;;;;4.57;4.17;;;;;;;;;;5049699;28;20194;-78
2023/11/21 12:57:45;;;;;;;5.43;4.93;;;;;;;;;;5049973;28;20703;-77
2023/11/21 13:00:24;;;;;;;5.57;5.07;;;;;;;;;;5049535;28;20198;-77
2023/11/21 13:02:53;;;;;;;5.70;4.80;;;;;;;;;;5053613;28;20292;-77
2023/11/21 13:05:26;;;;;;;6.00;5.40;;;;;;;;;;5053083;28;20614;-77
2023/11/21 13:07:54;;;;;;;6.60;4.70;;;;;;;;;;5052791;28;20205;-77
2023/11/21 13:10:25;;;;;;;6.13;4.37;;;;;;;;;;5053392;28;20285;-77
2023/11/21 13:12:53;;;;;;;5.03;4.43;;;;;;;;;;5053460;28;20237;-77
2023/11/21 13:15:20;;;;;;;13.70;10.77;;;;;;;;;;5053502;28;20285;-77
2023/11/21 13:17:47;;;;;;;9.90;8.50;;;;;;;;;;5052871;28;20202;-77
2023/11/21 13:20:16;;;;;;;28.87;23.80;;;;;;;;;;5052829;28;20296;-77
2023/11/21 13:22:51;;;;;;;8.07;5.97;;;;;;;;;;5053221;28;20201;-77
2023/11/21 13:25:19;;;;;;;15.00;12.70;;;;;;;;;;5053229;28;20257;-77
2023/11/21 13:27:48;;;;;;;11.13;9.73;;;;;;;;;;5053482;28;20202;-77
2023/11/21 13:30:22;;;;;;;7.67;4.70;;;;;;;;;;5040932;28;20210;-77
2023/11/21 13:32:51;;;;;;;5.47;4.93;;;;;;;;;;5052772;28;20214;-77
2023/11/21 13:35:23;;;;;;;4.70;4.20;;;;;;;;;;5052255;28;20752;-77
2023/11/21 13:37:55;;;;;;;9.97;7.30;;;;;;;;;;5053126;28;20655;-77
2023/11/21 13:40:25;;;;;;;96.93;55.40;;;;;;;;;;5052471;28;20263;-77
2023/11/21 13:42:54;;;;;;;79.83;44.73;;;;;;;;;;5052585;28;20193;-77
2023/11/21 13:45:23;;;;;;;10.80;9.07;;;;;;;;;;5052111;28;20237;-77
2023/11/21 13:47:52;;;;;;;13.40;11.03;;;;;;;;;;5052551;28;20209;-77
2023/11/21 13:50:22;;;;;;;8.50;6.87;;;;;;;;;;5052164;28;20225;-77
2023/11/21 13:52:50;;;;;;;9.40;6.97;;;;;;;;;;5052597;28;20202;-77
2023/11/21 13:55:18;;;;;;;7.87;6.70;;;;;;;;;;5051806;28;20244;-77
2023/11/21 13:57:49;;;;;;;6.23;5.13;;;;;;;;;;5052241;28;20201;-77
2023/11/21 14:03:00;;;;;;;5.53;4.93;;;;;;;;;;5052122;28;20202;-77
2023/11/21 14:05:29;;;;;;;5.70;4.93;;;;;;;;;;5052353;28;20271;-77
2023/11/21 14:08:02;;;;;;;12.73;7.17;;;;;;;;;;5050062;28;20221;-78
2023/11/21 14:10:36;;;;;;;8.23;5.70;;;;;;;;;;5042114;28;20202;-77
2023/11/21 14:13:04;;;;;;;11.47;10.17;;;;;;;;;;5051669;28;20201;-77
2023/11/21 14:15:32;;;;;;;15.07;13.50;;;;;;;;;;5051450;28;20206;-78
2023/11/21 14:18:02;;;;;;;6.77;6.17;;;;;;;;;;5051978;28;20201;-77
2023/11/21 14:20:30;;;;;;;12.20;9.50;;;;;;;;;;5052446;28;20236;-77
2023/11/21 14:22:57;;;;;;;11.63;10.47;;;;;;;;;;5052310;28;20202;-77
2023/11/21 14:25:24;;;;;;;10.97;8.70;;;;;;;;;;5051875;28;20230;-77
2023/11/21 14:27:51;;;;;;;10.27;9.00;;;;;;;;;;5052000;28;20206;-77
2023/11/21 14:30:19;;;;;;;14.83;13.03;;;;;;;;;;5051561;28;20610;-77
2023/11/21 14:32:47;;;;;;;30.83;21.40;;;;;;;;;;5051090;28;20206;-77
2023/11/21 14:35:14;;;;;;;8.03;6.90;;;;;;;;;;5050998;28;20209;-78
2023/11/21 14:37:41;;;;;;;6.77;4.90;;;;;;;;;;5051788;28;20210;-77
2023/11/21 14:40:09;;;;;;;6.27;4.67;;;;;;;;;;5051622;28;20638;-77
2023/11/21 14:42:37;;;;;;;7.80;6.43;;;;;;;;;;5051026;28;20209;-77
2023/11/21 14:45:08;;;;;;;10.40;9.50;;;;;;;;;;5051706;28;20603;-78
2023/11/21 14:47:37;;;;;;;7.70;5.07;;;;;;;;;;5051871;28;20198;-77
2023/11/21 14:50:38;;;;;;;5.07;4.57;;;;;;;;;;5051215;28;20205;-77